createdAt,value
2023-01-28T00:00:11.535Z,100524.51
2023-01-28T00:01:21.135Z,100518.25
2023-01-28T00:02:30.513Z,100526.92
2023-01-28T00:03:39.876Z,100529.27
2023-01-28T00:04:49.199Z,100525.48
2023-01-28T00:07:24.003Z,100515.30
2023-01-28T00:09:52.346Z,100515.20
2023-01-28T00:11:03.267Z,100521.56
2023-01-28T00:12:11.811Z,100516.38
2023-01-28T00:13:20.692Z,100518.70
2023-01-28T00:14:30.232Z,100517.02
2023-01-28T00:16:54.586Z,100512.53
2023-01-28T00:18:05.443Z,100525.88
2023-01-28T00:19:13.863Z,100516.33
2023-01-28T00:20:23.708Z,100519.95
2023-01-28T00:21:34.560Z,100522.73
2023-01-28T00:22:47.949Z,100530.70
2023-01-28T00:23:58.896Z,100524.59
2023-01-28T00:25:07.712Z,100528.73
2023-01-28T00:27:45.777Z,100531.80
2023-01-28T00:28:55.375Z,100526.34
2023-01-28T00:30:05.129Z,100533.42
2023-01-28T00:31:20.313Z,100530.75
2023-01-28T00:32:28.936Z,100530.83
2023-01-28T00:33:38.566Z,100528.04
2023-01-28T00:34:50.095Z,100532.94
2023-01-28T00:36:04.655Z,100526.52
2023-01-28T00:37:14.210Z,100515.82
2023-01-28T00:38:24.168Z,100526.22
2023-01-28T00:39:33.992Z,100519.84
2023-01-28T00:41:59.369Z,100514.70
2023-01-28T00:43:08.125Z,100514.58
2023-01-28T00:44:17.213Z,100517.81
2023-01-28T00:45:26.944Z,100515.50
2023-01-28T00:46:37.167Z,100514.46
2023-01-28T00:47:48.012Z,100508.81
2023-01-28T00:48:56.796Z,100519.19
2023-01-28T00:50:06.684Z,100514.86
2023-01-28T00:51:18.010Z,100515.78
2023-01-28T00:52:27.152Z,100511.48
2023-01-28T00:53:38.265Z,100518.80
2023-01-28T00:54:48.316Z,100512.80
2023-01-28T00:57:12.668Z,100508.53
2023-01-28T00:58:23.583Z,100523.70
2023-01-28T00:59:32.331Z,100527.41
2023-01-28T01:00:42.142Z,100520.41
2023-01-28T01:01:52.253Z,100521.30
2023-01-28T01:03:02.985Z,100521.34
2023-01-28T01:04:12.637Z,100526.64
2023-01-28T01:05:21.726Z,100521.38
2023-01-28T01:06:35.612Z,100525.02
2023-01-28T01:07:44.351Z,100524.28
2023-01-28T01:08:52.994Z,100524.33
2023-01-28T01:10:11.822Z,100518.19
2023-01-28T01:11:21.240Z,100531.45
2023-01-28T01:12:30.940Z,100521.03
2023-01-28T01:13:42.130Z,100522.88
2023-01-28T01:14:50.669Z,100515.89
2023-01-28T01:16:04.997Z,100514.14
2023-01-28T01:17:13.996Z,100514.14
2023-01-28T01:18:23.552Z,100506.23
2023-01-28T01:19:32.292Z,100505.30
2023-01-28T01:21:59.179Z,100501.33
2023-01-28T01:23:08.221Z,100499.02
2023-01-28T01:24:18.051Z,100496.28
2023-01-28T01:25:27.025Z,100502.24
2023-01-28T01:26:36.924Z,100501.14
2023-01-28T01:27:50.832Z,100493.34
2023-01-28T01:29:00.893Z,100504.82
2023-01-28T01:30:12.274Z,100501.24
2023-01-28T01:31:23.118Z,100501.80
2023-01-28T01:32:35.433Z,100501.73
2023-01-28T01:33:46.751Z,100505.01
2023-01-28T01:34:56.972Z,100502.16
2023-01-28T01:36:08.599Z,100509.86
2023-01-28T01:37:17.254Z,100510.62
2023-01-28T01:38:27.553Z,100502.56
2023-01-28T01:39:37.615Z,100500.70
2023-01-28T01:40:50.079Z,100511.04
2023-01-28T01:41:59.713Z,100510.23
2023-01-28T01:45:08.972Z,100497.30
2023-01-28T01:47:47.595Z,100502.91
2023-01-28T01:49:00.477Z,100499.64
2023-01-28T01:50:19.871Z,100506.53
2023-01-28T01:52:50.829Z,100496.08
2023-01-28T01:54:01.251Z,100497.83
2023-01-28T05:52:30.113Z,100521.36
2023-01-28T05:53:42.804Z,100535.48
2023-01-28T05:54:52.686Z,100531.04
2023-01-28T05:56:03.713Z,100526.63
2023-01-28T05:57:14.395Z,100529.19
2023-01-28T05:58:25.337Z,100529.92
2023-01-28T05:59:34.090Z,100531.53
2023-01-28T06:00:43.935Z,100529.67
2023-01-28T06:01:54.787Z,100530.41
2023-01-28T06:04:19.605Z,100521.36
2023-01-28T06:05:29.587Z,100524.79
2023-01-28T06:07:55.009Z,100519.91
2023-01-28T06:09:04.445Z,100524.30
2023-01-28T06:11:33.586Z,100515.80
2023-01-28T06:12:44.905Z,100533.44
2023-01-28T06:15:17.811Z,100519.66
2023-01-28T06:16:30.960Z,100534.83
2023-01-28T06:17:47.657Z,100522.30
2023-01-28T06:18:58.633Z,100520.39
2023-01-28T06:20:10.129Z,100524.75
2023-01-28T06:21:21.069Z,100525.24
2023-01-28T06:22:29.693Z,100534.75
2023-01-28T06:23:39.098Z,100526.79
2023-01-28T06:24:50.512Z,100535.64
2023-01-28T06:26:00.666Z,100527.81
2023-01-28T06:27:09.438Z,100527.26
2023-01-28T06:28:18.700Z,100546.36
2023-01-28T06:29:27.596Z,100536.04
2023-01-28T06:30:36.599Z,100533.30
2023-01-28T06:31:45.927Z,100542.28
2023-01-28T06:32:56.919Z,100543.55
2023-01-28T06:34:06.429Z,100536.30
2023-01-28T06:36:30.716Z,100517.55
2023-01-28T06:37:41.580Z,100527.20
2023-01-28T06:38:50.408Z,100527.91
2023-01-28T06:39:59.495Z,100528.02
2023-01-28T06:41:09.478Z,100530.17
2023-01-28T06:43:32.999Z,100529.74
2023-01-28T06:44:41.498Z,100534.09
2023-01-28T06:45:50.507Z,100536.09
2023-01-28T06:46:59.209Z,100550.91
2023-01-28T06:48:09.000Z,100547.11
2023-01-28T06:49:19.933Z,100544.30
2023-01-28T06:50:29.898Z,100546.73
2023-01-28T06:52:53.859Z,100531.17
2023-01-28T06:54:03.187Z,100532.41
2023-01-28T06:55:11.900Z,100538.66
2023-01-28T06:56:22.038Z,100529.77
2023-01-28T06:57:31.694Z,100528.00
2023-01-28T06:58:41.276Z,100522.66
2023-01-28T06:59:49.991Z,100526.20
2023-01-28T07:00:59.949Z,100521.86
2023-01-28T07:02:12.265Z,100522.77
2023-01-28T07:03:21.887Z,100529.86
2023-01-28T07:04:31.920Z,100533.61
2023-01-28T07:05:40.904Z,100535.48
2023-01-28T07:06:50.054Z,100533.62
2023-01-28T07:08:00.779Z,100543.28
2023-01-28T07:09:09.642Z,100535.38
2023-01-28T07:10:18.675Z,100538.92
2023-01-28T07:11:27.864Z,100535.58
2023-01-28T07:12:37.519Z,100545.37
2023-01-28T07:13:47.090Z,100545.37
2023-01-28T07:14:55.925Z,100538.28
2023-01-28T07:16:06.646Z,100557.73
2023-01-28T07:17:16.198Z,100546.38
2023-01-28T07:18:26.097Z,100542.01
2023-01-28T07:19:35.799Z,100548.20
2023-01-28T07:20:45.407Z,100546.51
2023-01-28T07:21:56.051Z,100547.34
2023-01-28T07:23:05.073Z,100547.23
2023-01-28T07:24:13.788Z,100544.58
2023-01-28T07:25:23.757Z,100545.52
2023-01-28T07:26:32.993Z,100546.41
2023-01-28T07:27:52.659Z,100541.84
2023-01-28T07:29:01.932Z,100533.00
2023-01-28T07:30:12.143Z,100530.28
2023-01-28T07:31:21.387Z,100528.45
2023-01-28T07:32:31.938Z,100530.14
2023-01-28T07:33:40.804Z,100523.95
2023-01-28T07:34:50.337Z,100524.73
2023-01-28T07:35:59.074Z,100524.61
2023-01-28T07:37:07.931Z,100520.95
2023-01-28T07:38:16.596Z,100520.19
2023-01-28T07:39:25.487Z,100520.39
2023-01-28T07:40:35.089Z,100523.14
2023-01-28T07:43:00.368Z,100515.08
2023-01-28T07:44:09.745Z,100521.38
2023-01-28T07:45:19.473Z,100519.06
2023-01-28T07:46:28.707Z,100517.28
2023-01-28T07:47:37.495Z,100520.77
2023-01-28T07:48:46.336Z,100518.11
2023-01-28T07:49:56.851Z,100515.49
2023-01-28T07:51:06.478Z,100521.58
2023-01-28T07:52:15.498Z,100527.67
2023-01-28T07:54:39.961Z,100528.28
2023-01-28T07:55:49.743Z,100528.36
2023-01-28T07:56:58.471Z,100537.95
2023-01-28T07:59:24.840Z,100540.42
2023-01-28T08:00:36.711Z,100543.22
2023-01-28T08:01:45.729Z,100543.22
2023-01-28T08:04:15.076Z,100549.24
2023-01-28T08:06:42.251Z,100548.38
2023-01-28T08:07:52.865Z,100538.21
2023-01-28T08:09:02.495Z,100553.38
2023-01-28T08:11:27.376Z,100541.09
2023-01-28T08:12:36.066Z,100549.08
2023-01-28T08:13:44.595Z,100550.03
2023-01-28T08:14:53.345Z,100549.46
2023-01-28T08:16:06.188Z,100540.69
2023-01-28T08:17:15.108Z,100545.84
2023-01-28T08:18:24.137Z,100554.70
2023-01-28T08:19:34.123Z,100550.45
2023-01-28T08:21:59.900Z,100544.77
2023-01-28T08:23:16.744Z,100549.12
2023-01-28T08:24:25.501Z,100553.52
2023-01-28T08:25:35.519Z,100546.17
2023-01-28T08:26:46.276Z,100549.43
2023-01-28T08:27:54.809Z,100537.77
2023-01-28T08:29:04.399Z,100542.86
2023-01-28T08:30:15.667Z,100542.64
2023-01-28T08:31:28.651Z,100535.47
2023-01-28T08:32:37.604Z,100540.63
2023-01-28T08:33:46.168Z,100540.71
2023-01-28T08:36:10.307Z,100540.12
2023-01-28T08:37:19.373Z,100539.52
2023-01-28T08:38:28.325Z,100541.61
2023-01-28T08:39:37.118Z,100539.98
2023-01-28T08:40:48.557Z,100539.11
2023-01-28T08:43:13.302Z,100538.52
2023-01-28T08:44:21.854Z,100530.83
2023-01-28T08:45:31.487Z,100529.99
2023-01-28T08:46:40.264Z,100529.91
2023-01-28T08:47:56.201Z,100522.81
2023-01-28T08:49:05.563Z,100531.56
2023-01-28T08:50:16.368Z,100525.41
2023-01-28T08:51:26.141Z,100530.56
2023-01-28T08:52:36.078Z,100523.64
2023-01-28T08:53:45.066Z,100530.69
2023-01-28T08:55:00.474Z,100525.34
2023-01-28T08:56:10.009Z,100519.98
2023-01-28T08:57:18.544Z,100513.80
2023-01-28T08:58:28.251Z,100518.30
2023-01-28T08:59:38.685Z,100514.67
2023-01-28T09:00:49.379Z,100511.20
2023-01-28T09:01:58.240Z,100513.80
2023-01-28T09:03:07.275Z,100506.64
2023-01-28T09:04:15.895Z,100497.73
2023-01-28T09:05:25.188Z,100502.96
2023-01-28T09:07:50.372Z,100491.06
2023-01-28T09:09:00.411Z,100501.63
2023-01-28T09:10:10.750Z,100505.08
2023-01-28T09:11:19.912Z,100491.83
2023-01-28T09:12:29.007Z,100489.09
2023-01-28T09:13:37.725Z,100496.91
2023-01-28T09:14:46.226Z,100492.50
2023-01-28T09:15:55.866Z,100489.00
2023-01-28T09:17:05.314Z,100492.69
2023-01-28T09:18:14.616Z,100484.86
2023-01-28T09:19:23.118Z,100487.44
2023-01-28T09:20:32.659Z,100485.06
2023-01-28T09:21:42.201Z,100478.89
2023-01-28T09:22:51.417Z,100485.01
2023-01-28T09:24:00.001Z,100483.30
2023-01-28T09:25:09.475Z,100482.44
2023-01-28T09:26:19.086Z,100485.89
2023-01-28T09:27:29.349Z,100482.30
2023-01-28T09:28:40.045Z,100478.37
2023-01-28T09:29:48.582Z,100474.03
2023-01-28T09:32:21.050Z,100473.94
2023-01-28T09:33:30.607Z,100475.33
2023-01-28T09:34:40.482Z,100471.50
2023-01-28T09:35:50.354Z,100468.78
2023-01-28T09:37:00.725Z,100468.78
2023-01-28T09:38:10.267Z,100478.48
2023-01-28T09:39:18.876Z,100476.59
2023-01-28T09:42:01.968Z,100465.30
2023-01-28T09:45:16.209Z,100458.33
2023-01-28T09:47:52.831Z,100455.86
2023-01-28T09:50:31.142Z,100447.02
2023-01-28T14:16:06.104Z,100298.50
2023-01-28T14:18:44.670Z,100306.20
2023-01-28T14:19:54.320Z,100307.12
2023-01-28T14:22:26.341Z,100313.62
2023-01-28T14:23:37.720Z,100298.79
2023-01-28T14:24:47.739Z,100315.21
2023-01-28T14:26:17.474Z,100307.28
2023-01-28T14:27:38.647Z,100305.41
2023-01-28T14:28:57.367Z,100305.41
2023-01-28T14:30:10.371Z,100308.77
2023-01-28T14:31:34.253Z,100307.15
2023-01-28T14:32:48.964Z,100306.25
2023-01-28T14:35:20.186Z,100292.59
2023-01-28T14:36:31.180Z,100304.25
2023-01-28T14:37:41.942Z,100312.14
2023-01-28T14:38:50.647Z,100313.80
2023-01-28T14:40:05.876Z,100303.18
2023-01-28T14:42:52.424Z,100307.93
2023-01-28T14:44:02.031Z,100309.14
2023-01-28T14:45:20.881Z,100315.46
2023-01-28T14:48:11.535Z,100303.76
2023-01-28T14:49:23.795Z,100319.85
2023-01-28T14:51:09.694Z,100311.11
2023-01-28T14:52:28.557Z,100319.00
2023-01-28T14:53:44.468Z,100306.62
2023-01-28T14:56:46.484Z,100314.16
2023-01-28T14:58:08.532Z,100324.07
2023-01-28T14:59:24.785Z,100325.02
2023-01-28T15:00:36.277Z,100327.88
2023-01-28T15:01:48.249Z,100322.41
2023-01-28T15:02:57.933Z,100327.74
2023-01-28T15:05:28.689Z,100319.31
2023-01-28T15:06:38.261Z,100327.44
2023-01-28T15:07:48.581Z,100326.63
2023-01-28T15:10:35.624Z,100324.75
2023-01-28T15:11:48.383Z,100335.59
2023-01-28T15:13:06.874Z,100337.25
2023-01-28T15:15:54.568Z,100325.02
2023-01-28T15:17:05.157Z,100336.66
2023-01-28T15:19:37.466Z,100328.77
2023-01-28T15:20:48.277Z,100332.44
2023-01-28T15:22:01.138Z,100328.95
2023-01-28T15:23:12.069Z,100332.27
2023-01-28T15:24:20.534Z,100330.39
2023-01-28T15:26:48.105Z,100333.84
2023-01-28T15:28:01.267Z,100329.58
2023-01-28T15:29:26.324Z,100332.31
2023-01-28T15:30:35.318Z,100331.33
2023-01-28T15:33:15.972Z,100324.03
2023-01-28T15:34:32.182Z,100323.56
2023-01-28T15:35:56.716Z,100326.00
2023-01-28T15:37:06.489Z,100327.97
2023-01-28T15:38:18.364Z,100337.55
2023-01-28T15:39:29.492Z,100326.93
2023-01-28T15:42:04.094Z,100333.88
2023-01-28T15:44:38.302Z,100333.25
2023-01-28T15:45:49.968Z,100335.08
2023-01-28T15:47:02.111Z,100337.77
2023-01-28T15:48:12.023Z,100339.43
2023-01-28T15:49:21.921Z,100338.55
2023-01-28T15:50:30.977Z,100341.27
2023-01-28T15:51:40.025Z,100343.91
2023-01-28T15:52:51.329Z,100335.16
2023-01-28T15:54:03.922Z,100337.86
2023-01-28T15:55:37.042Z,100342.33
2023-01-28T15:56:47.249Z,100346.80
2023-01-28T15:57:56.645Z,100338.67
2023-01-28T16:00:36.673Z,100338.79
2023-01-28T16:01:45.654Z,100336.53
2023-01-28T16:02:54.816Z,100342.09
2023-01-28T16:04:07.280Z,100345.63
2023-01-28T16:05:34.382Z,100350.34
2023-01-28T16:06:45.082Z,100349.41
2023-01-28T16:07:56.850Z,100349.86
2023-01-28T16:09:12.119Z,100350.95
2023-01-28T16:10:25.444Z,100348.07
2023-01-28T16:13:01.989Z,100345.09
2023-01-28T16:14:26.570Z,100357.83
2023-01-28T16:16:56.937Z,100348.75
2023-01-28T16:18:07.505Z,100355.37
2023-01-28T16:19:23.739Z,100357.09
2023-01-28T16:20:33.081Z,100352.73
2023-01-28T16:21:46.917Z,100342.88
2023-01-28T16:22:59.567Z,100343.09
2023-01-28T16:24:23.025Z,100351.88
2023-01-28T16:25:36.310Z,100358.27
2023-01-28T16:28:07.612Z,100348.27
2023-01-28T16:29:18.887Z,100344.28
2023-01-28T16:30:30.552Z,100349.70
2023-01-28T16:31:39.335Z,100358.59
2023-01-28T16:32:48.343Z,100356.19
2023-01-28T16:33:57.929Z,100352.75
2023-01-28T16:36:35.198Z,100349.88
2023-01-28T16:37:46.052Z,100355.16
2023-01-28T16:38:54.665Z,100354.05
2023-01-28T16:40:04.926Z,100354.73
2023-01-28T16:42:41.158Z,100350.98
2023-01-28T16:43:50.118Z,100358.05
2023-01-28T16:45:00.042Z,100355.77
2023-01-28T16:47:28.193Z,100351.80
2023-01-28T16:48:36.983Z,100349.59
2023-01-28T16:49:47.409Z,100350.16
2023-01-28T16:50:56.570Z,100351.27
2023-01-28T16:52:05.987Z,100361.91
2023-01-28T16:53:27.414Z,100352.23
2023-01-28T16:54:36.938Z,100347.67
2023-01-28T16:55:46.204Z,100361.55
2023-01-28T16:56:56.410Z,100346.88
2023-01-28T16:59:20.484Z,100349.30
2023-01-28T17:00:31.196Z,100364.55
2023-01-28T17:01:40.122Z,100356.66
2023-01-28T17:04:26.374Z,100358.57
2023-01-28T17:05:34.885Z,100365.16
2023-01-28T17:06:45.962Z,100363.41
2023-01-28T17:09:13.117Z,100355.00
2023-01-28T17:10:21.636Z,100352.47
2023-01-28T17:12:47.890Z,100351.35
2023-01-28T17:13:57.127Z,100363.00
2023-01-28T17:16:43.290Z,100352.79
2023-01-28T17:17:53.258Z,100360.95
2023-01-28T17:19:02.309Z,100364.82
2023-01-28T17:20:12.279Z,100367.50
2023-01-28T17:21:21.394Z,100363.15
2023-01-28T17:22:30.867Z,100358.23
2023-01-28T17:23:39.496Z,100356.41
2023-01-28T17:24:48.405Z,100364.30
2023-01-28T17:26:07.004Z,100362.66
2023-01-28T17:27:16.166Z,100369.72
2023-01-28T17:28:25.836Z,100369.90
2023-01-28T17:30:49.968Z,100348.70
2023-01-28T17:33:14.658Z,100354.77
2023-01-28T17:34:27.317Z,100350.38
2023-01-28T17:35:36.837Z,100350.56
2023-01-28T17:36:46.551Z,100353.34
2023-01-28T17:37:55.477Z,100349.84
2023-01-28T17:39:06.680Z,100349.73
2023-01-28T17:40:16.120Z,100341.75
2023-01-28T17:42:40.132Z,100347.81
2023-01-28T17:45:11.367Z,100350.38
2023-01-28T17:46:22.345Z,100353.48
2023-01-28T22:00:54.749Z,100409.55
2023-01-28T22:02:07.354Z,100413.16
2023-01-28T22:03:15.855Z,100402.59
2023-01-28T22:04:27.446Z,100407.75
2023-01-28T22:05:35.973Z,100408.61
2023-01-28T22:06:45.316Z,100413.76
2023-01-28T22:07:54.457Z,100397.95
2023-01-28T22:10:18.965Z,100399.30
2023-01-28T22:11:29.050Z,100409.91
2023-01-28T22:12:37.564Z,100409.87
2023-01-28T22:13:46.849Z,100408.77
2023-01-28T22:16:11.843Z,100398.78
2023-01-28T22:18:35.883Z,100402.15
2023-01-28T22:19:46.478Z,100405.98
2023-01-28T22:21:02.581Z,100403.32
2023-01-28T22:22:12.212Z,100397.20
2023-01-28T22:23:21.193Z,100403.34
2023-01-28T22:24:30.341Z,100397.91
2023-01-28T22:25:39.333Z,100397.73
2023-01-28T22:26:48.909Z,100394.39
2023-01-28T22:27:58.525Z,100393.53
2023-01-28T22:29:08.894Z,100390.80
2023-01-28T22:30:18.487Z,100388.23
2023-01-28T22:31:27.757Z,100389.94
2023-01-28T22:32:36.341Z,100392.02
2023-01-28T22:33:45.823Z,100391.06
2023-01-28T22:34:54.678Z,100392.73
2023-01-28T22:36:19.135Z,100390.23
2023-01-28T22:37:29.036Z,100388.29
2023-01-28T22:38:38.822Z,100380.20
2023-01-28T22:39:48.101Z,100389.27
2023-01-28T22:42:22.559Z,100376.74
2023-01-28T22:43:31.475Z,100382.52
2023-01-28T22:44:39.991Z,100382.54
2023-01-28T22:45:48.525Z,100376.29
2023-01-28T22:46:57.183Z,100384.20
2023-01-28T22:48:06.390Z,100383.31
2023-01-28T22:49:15.380Z,100388.73
2023-01-28T22:50:26.363Z,100380.79
2023-01-28T22:51:35.582Z,100391.31
2023-01-28T22:52:44.275Z,100391.13
2023-01-28T22:53:53.570Z,100384.04
2023-01-28T22:55:03.941Z,100386.67
2023-01-28T22:56:14.370Z,100381.91
2023-01-28T22:57:23.456Z,100383.23
2023-01-28T22:58:32.139Z,100385.77
2023-01-28T22:59:51.203Z,100380.43
2023-01-28T23:00:54.654Z,100376.00
2023-01-28T23:02:04.298Z,100377.32
2023-01-28T23:03:13.502Z,100377.17
2023-01-28T23:04:23.401Z,100384.06
2023-01-28T23:05:31.957Z,100377.01
2023-01-28T23:06:40.789Z,100376.98
2023-01-28T23:07:49.584Z,100382.28
2023-01-28T23:08:58.952Z,100383.48
2023-01-28T23:10:10.032Z,100379.73
2023-01-28T23:12:40.446Z,100369.78
2023-01-28T23:14:08.400Z,100376.14
2023-01-28T23:15:36.457Z,100379.69
2023-01-28T23:17:05.712Z,100375.44
2023-01-28T23:18:39.935Z,100380.59
2023-01-28T23:20:09.142Z,100376.44
2023-01-28T23:21:39.965Z,100378.45
2023-01-28T23:23:07.041Z,100365.95
2023-01-28T23:25:34.891Z,100356.89
2023-01-28T23:26:43.821Z,100363.14
2023-01-28T23:27:52.452Z,100375.39
2023-01-28T23:29:01.083Z,100362.12
2023-01-28T23:30:12.735Z,100372.73
2023-01-28T23:31:21.444Z,100373.52
2023-01-28T23:32:30.484Z,100376.22
2023-01-28T23:33:41.169Z,100372.81
2023-01-28T23:34:49.990Z,100365.80
2023-01-28T23:35:58.740Z,100361.55
2023-01-28T23:37:09.983Z,100364.20
2023-01-28T23:38:18.383Z,100357.14
2023-01-28T23:39:27.242Z,100372.81
2023-01-28T23:40:36.459Z,100358.45
2023-01-28T23:41:44.995Z,100360.25
2023-01-28T23:42:55.296Z,100363.47
2023-01-28T23:44:04.985Z,100360.81
2023-01-28T23:46:39.022Z,100353.72
2023-01-28T23:47:40.968Z,100352.42
2023-01-28T23:48:52.156Z,100346.32
2023-01-28T23:50:01.872Z,100348.95
2023-01-28T23:51:11.441Z,100350.67
2023-01-28T23:52:20.555Z,100353.47
2023-01-28T23:53:29.182Z,100355.37
2023-01-28T23:54:37.695Z,100356.39
2023-01-28T23:57:02.451Z,100352.09
2023-01-28T23:58:11.976Z,100348.73
2023-01-28T23:59:21.934Z,100357.56
